sensor_id;sensor_type;location;lat;lon;timestamp;P1;durP1;ratioP1;P2;durP2;ratioP2
70731;SDS011;58316;48.164;11.538;2022-08-06T00:01:33;7.18;;;2.08;;
70731;SDS011;58316;48.164;11.538;2022-08-06T00:04:00;7.53;;;2.13;;
70731;SDS011;58316;48.164;11.538;2022-08-06T00:06:25;7.47;;;2.08;;
70731;SDS011;58316;48.164;11.538;2022-08-06T00:08:52;6.68;;;2.40;;
70731;SDS011;58316;48.164;11.538;2022-08-06T00:11:18;6.83;;;2.23;;
70731;SDS011;58316;48.164;11.538;2022-08-06T00:13:44;8.23;;;2.30;;
70731;SDS011;58316;48.164;11.538;2022-08-06T00:16:10;6.68;;;2.28;;
70731;SDS011;58316;48.164;11.538;2022-08-06T00:18:36;6.65;;;2.30;;
70731;SDS011;58316;48.164;11.538;2022-08-06T00:21:02;6.70;;;2.38;;
70731;SDS011;58316;48.164;11.538;2022-08-06T00:23:28;8.03;;;2.93;;
70731;SDS011;58316;48.164;11.538;2022-08-06T00:25:55;6.93;;;2.33;;
70731;SDS011;58316;48.164;11.538;2022-08-06T00:28:22;7.18;;;2.75;;
70731;SDS011;58316;48.164;11.538;2022-08-06T00:30:48;6.82;;;2.63;;
70731;SDS011;58316;48.164;11.538;2022-08-06T00:33:14;8.68;;;2.80;;
70731;SDS011;58316;48.164;11.538;2022-08-06T00:35:40;5.67;;;2.07;;
70731;SDS011;58316;48.164;11.538;2022-08-06T00:38:06;7.68;;;2.55;;
70731;SDS011;58316;48.164;11.538;2022-08-06T00:40:32;7.32;;;2.70;;
70731;SDS011;58316;48.164;11.538;2022-08-06T00:42:59;9.57;;;2.88;;
70731;SDS011;58316;48.164;11.538;2022-08-06T00:45:25;6.78;;;2.80;;
70731;SDS011;58316;48.164;11.538;2022-08-06T00:47:54;7.30;;;2.30;;
70731;SDS011;58316;48.164;11.538;2022-08-06T00:50:20;7.25;;;2.42;;
70731;SDS011;58316;48.164;11.538;2022-08-06T00:52:46;7.03;;;2.60;;
70731;SDS011;58316;48.164;11.538;2022-08-06T00:55:12;6.68;;;2.45;;
70731;SDS011;58316;48.164;11.538;2022-08-06T00:57:38;7.43;;;2.58;;
70731;SDS011;58316;48.164;11.538;2022-08-06T01:00:05;9.00;;;2.43;;
70731;SDS011;58316;48.164;11.538;2022-08-06T01:02:31;8.05;;;2.70;;
70731;SDS011;58316;48.164;11.538;2022-08-06T01:04:57;7.10;;;2.63;;
70731;SDS011;58316;48.164;11.538;2022-08-06T01:07:23;7.35;;;2.33;;
70731;SDS011;58316;48.164;11.538;2022-08-06T01:09:49;7.05;;;2.70;;
70731;SDS011;58316;48.164;11.538;2022-08-06T01:12:16;6.87;;;2.50;;
70731;SDS011;58316;48.164;11.538;2022-08-06T01:14:42;6.55;;;2.50;;
70731;SDS011;58316;48.164;11.538;2022-08-06T01:17:13;6.00;;;2.28;;
70731;SDS011;58316;48.164;11.538;2022-08-06T01:19:49;5.80;;;1.60;;
70731;SDS011;58316;48.164;11.538;2022-08-06T01:28:07;6.00;;;2.28;;
70731;SDS011;58316;48.164;11.538;2022-08-06T01:30:35;6.03;;;2.35;;
70731;SDS011;58316;48.164;11.538;2022-08-06T01:35:29;7.75;;;1.92;;
70731;SDS011;58316;48.164;11.538;2022-08-06T01:40:23;5.32;;;1.75;;
70731;SDS011;58316;48.164;11.538;2022-08-06T01:42:51;6.65;;;2.03;;
70731;SDS011;58316;48.164;11.538;2022-08-06T01:45:19;5.70;;;1.63;;
70731;SDS011;58316;48.164;11.538;2022-08-06T01:47:47;6.18;;;2.00;;
70731;SDS011;58316;48.164;11.538;2022-08-06T01:50:16;6.77;;;2.03;;
70731;SDS011;58316;48.164;11.538;2022-08-06T01:52:43;5.15;;;1.60;;
70731;SDS011;58316;48.164;11.538;2022-08-06T01:55:13;6.68;;;1.70;;
70731;SDS011;58316;48.164;11.538;2022-08-06T01:57:57;9.00;;;1.90;;
70731;SDS011;58316;48.164;11.538;2022-08-06T02:00:25;6.68;;;1.90;;
70731;SDS011;58316;48.164;11.538;2022-08-06T02:02:51;7.53;;;2.30;;
70731;SDS011;58316;48.164;11.538;2022-08-06T02:05:18;5.38;;;1.58;;
70731;SDS011;58316;48.164;11.538;2022-08-06T02:07:46;6.70;;;1.65;;
70731;SDS011;58316;48.164;11.538;2022-08-06T02:10:12;6.22;;;1.80;;
70731;SDS011;58316;48.164;11.538;2022-08-06T02:12:39;5.40;;;1.80;;
70731;SDS011;58316;48.164;11.538;2022-08-06T02:15:11;6.33;;;1.77;;
70731;SDS011;58316;48.164;11.538;2022-08-06T02:17:39;5.63;;;2.20;;
70731;SDS011;58316;48.164;11.538;2022-08-06T02:20:07;5.65;;;2.10;;
70731;SDS011;58316;48.164;11.538;2022-08-06T02:22:35;5.75;;;1.88;;
70731;SDS011;58316;48.164;11.538;2022-08-06T02:25:03;6.50;;;2.20;;
70731;SDS011;58316;48.164;11.538;2022-08-06T02:27:30;6.23;;;1.90;;
70731;SDS011;58316;48.164;11.538;2022-08-06T02:29:58;6.93;;;2.55;;
70731;SDS011;58316;48.164;11.538;2022-08-06T02:32:24;6.22;;;2.30;;
70731;SDS011;58316;48.164;11.538;2022-08-06T02:34:50;5.65;;;1.88;;
70731;SDS011;58316;48.164;11.538;2022-08-06T02:37:38;5.75;;;1.73;;
70731;SDS011;58316;48.164;11.538;2022-08-06T02:40:05;5.80;;;1.93;;
70731;SDS011;58316;48.164;11.538;2022-08-06T02:42:35;6.15;;;2.15;;
70731;SDS011;58316;48.164;11.538;2022-08-06T02:49:54;8.33;;;2.10;;
70731;SDS011;58316;48.164;11.538;2022-08-06T02:52:22;5.77;;;2.00;;
70731;SDS011;58316;48.164;11.538;2022-08-06T02:54:53;6.30;;;2.30;;
70731;SDS011;58316;48.164;11.538;2022-08-06T02:57:22;7.90;;;2.10;;
70731;SDS011;58316;48.164;11.538;2022-08-06T02:59:49;9.18;;;2.78;;
70731;SDS011;58316;48.164;11.538;2022-08-06T03:02:16;7.18;;;2.35;;
70731;SDS011;58316;48.164;11.538;2022-08-06T03:04:43;7.47;;;2.90;;
70731;SDS011;58316;48.164;11.538;2022-08-06T03:07:10;9.00;;;3.00;;
70731;SDS011;58316;48.164;11.538;2022-08-06T03:09:38;6.85;;;3.03;;
70731;SDS011;58316;48.164;11.538;2022-08-06T03:12:05;7.88;;;2.90;;
70731;SDS011;58316;48.164;11.538;2022-08-06T03:14:33;7.78;;;3.22;;
70731;SDS011;58316;48.164;11.538;2022-08-06T03:16:59;8.77;;;3.37;;
70731;SDS011;58316;48.164;11.538;2022-08-06T03:19:26;8.60;;;3.92;;
70731;SDS011;58316;48.164;11.538;2022-08-06T03:21:52;9.00;;;3.92;;
70731;SDS011;58316;48.164;11.538;2022-08-06T03:24:19;9.07;;;4.15;;
70731;SDS011;58316;48.164;11.538;2022-08-06T03:26:46;10.82;;;4.70;;
70731;SDS011;58316;48.164;11.538;2022-08-06T03:29:13;9.87;;;4.57;;
70731;SDS011;58316;48.164;11.538;2022-08-06T03:31:39;9.90;;;4.93;;
70731;SDS011;58316;48.164;11.538;2022-08-06T03:34:06;11.30;;;5.10;;
70731;SDS011;58316;48.164;11.538;2022-08-06T03:36:32;10.43;;;5.13;;
70731;SDS011;58316;48.164;11.538;2022-08-06T03:39:01;10.45;;;5.05;;
70731;SDS011;58316;48.164;11.538;2022-08-06T03:41:28;10.43;;;5.33;;
70731;SDS011;58316;48.164;11.538;2022-08-06T03:43:55;10.77;;;5.25;;
70731;SDS011;58316;48.164;11.538;2022-08-06T03:46:23;11.68;;;5.45;;
70731;SDS011;58316;48.164;11.538;2022-08-06T03:48:50;11.40;;;5.18;;
70731;SDS011;58316;48.164;11.538;2022-08-06T03:51:19;10.95;;;5.75;;
70731;SDS011;58316;48.164;11.538;2022-08-06T03:53:46;12.43;;;5.90;;
70731;SDS011;58316;48.164;11.538;2022-08-06T03:56:14;12.02;;;5.53;;
70731;SDS011;58316;48.164;11.538;2022-08-06T03:58:41;12.90;;;6.20;;
70731;SDS011;58316;48.164;11.538;2022-08-06T04:01:09;12.50;;;5.75;;
70731;SDS011;58316;48.164;11.538;2022-08-06T04:03:36;25.77;;;17.33;;
70731;SDS011;58316;48.164;11.538;2022-08-06T04:06:03;13.77;;;6.87;;
70731;SDS011;58316;48.164;11.538;2022-08-06T04:08:29;12.50;;;6.55;;
70731;SDS011;58316;48.164;11.538;2022-08-06T04:10:56;11.85;;;6.63;;
70731;SDS011;58316;48.164;11.538;2022-08-06T04:13:23;12.73;;;6.30;;
70731;SDS011;58316;48.164;11.538;2022-08-06T04:15:50;13.75;;;7.10;;
70731;SDS011;58316;48.164;11.538;2022-08-06T04:18:18;14.90;;;7.10;;
70731;SDS011;58316;48.164;11.538;2022-08-06T04:20:46;17.15;;;8.32;;
70731;SDS011;58316;48.164;11.538;2022-08-06T04:23:12;18.83;;;10.50;;
70731;SDS011;58316;48.164;11.538;2022-08-06T04:25:40;21.27;;;11.48;;
70731;SDS011;58316;48.164;11.538;2022-08-06T04:28:06;20.10;;;11.43;;
70731;SDS011;58316;48.164;11.538;2022-08-06T04:30:34;19.80;;;11.33;;
70731;SDS011;58316;48.164;11.538;2022-08-06T04:33:01;18.58;;;11.00;;
70731;SDS011;58316;48.164;11.538;2022-08-06T04:35:30;18.70;;;10.00;;
70731;SDS011;58316;48.164;11.538;2022-08-06T04:37:57;20.58;;;10.32;;
70731;SDS011;58316;48.164;11.538;2022-08-06T04:40:24;17.40;;;9.70;;
70731;SDS011;58316;48.164;11.538;2022-08-06T04:42:50;17.73;;;9.90;;
70731;SDS011;58316;48.164;11.538;2022-08-06T04:45:17;18.25;;;10.68;;
70731;SDS011;58316;48.164;11.538;2022-08-06T04:47:43;17.10;;;9.65;;
70731;SDS011;58316;48.164;11.538;2022-08-06T04:50:10;17.58;;;10.13;;
70731;SDS011;58316;48.164;11.538;2022-08-06T04:52:36;17.17;;;9.95;;
70731;SDS011;58316;48.164;11.538;2022-08-06T04:55:02;18.53;;;10.90;;
70731;SDS011;58316;48.164;11.538;2022-08-06T04:57:29;15.90;;;9.25;;
70731;SDS011;58316;48.164;11.538;2022-08-06T04:59:55;15.55;;;8.68;;
70731;SDS011;58316;48.164;11.538;2022-08-06T05:02:21;16.50;;;9.07;;
70731;SDS011;58316;48.164;11.538;2022-08-06T05:04:47;15.70;;;9.85;;
70731;SDS011;58316;48.164;11.538;2022-08-06T05:07:26;14.63;;;8.47;;
70731;SDS011;58316;48.164;11.538;2022-08-06T05:09:54;14.85;;;8.57;;
70731;SDS011;58316;48.164;11.538;2022-08-06T05:12:27;12.68;;;6.70;;
70731;SDS011;58316;48.164;11.538;2022-08-06T05:17:56;16.15;;;7.85;;
70731;SDS011;58316;48.164;11.538;2022-08-06T05:20:22;14.30;;;7.40;;
70731;SDS011;58316;48.164;11.538;2022-08-06T05:22:49;11.90;;;6.80;;
70731;SDS011;58316;48.164;11.538;2022-08-06T05:25:18;14.93;;;6.72;;
70731;SDS011;58316;48.164;11.538;2022-08-06T05:27:44;15.52;;;6.97;;
70731;SDS011;58316;48.164;11.538;2022-08-06T05:30:10;12.02;;;6.55;;
70731;SDS011;58316;48.164;11.538;2022-08-06T05:32:41;12.83;;;6.10;;
70731;SDS011;58316;48.164;11.538;2022-08-06T05:35:07;12.43;;;6.40;;
70731;SDS011;58316;48.164;11.538;2022-08-06T05:37:33;10.73;;;6.15;;
70731;SDS011;58316;48.164;11.538;2022-08-06T05:39:59;12.68;;;6.18;;
70731;SDS011;58316;48.164;11.538;2022-08-06T05:42:25;9.73;;;5.80;;
70731;SDS011;58316;48.164;11.538;2022-08-06T05:44:51;10.50;;;6.10;;
70731;SDS011;58316;48.164;11.538;2022-08-06T05:47:18;12.55;;;6.10;;
70731;SDS011;58316;48.164;11.538;2022-08-06T05:49:49;13.77;;;6.38;;
70731;SDS011;58316;48.164;11.538;2022-08-06T05:55:04;13.25;;;5.68;;
70731;SDS011;58316;48.164;11.538;2022-08-06T05:57:34;11.73;;;5.50;;
70731;SDS011;58316;48.164;11.538;2022-08-06T06:00:13;11.00;;;5.57;;
70731;SDS011;58316;48.164;11.538;2022-08-06T06:02:42;12.07;;;5.88;;
70731;SDS011;58316;48.164;11.538;2022-08-06T06:05:08;12.68;;;6.20;;
70731;SDS011;58316;48.164;11.538;2022-08-06T06:07:36;12.05;;;5.90;;
70731;SDS011;58316;48.164;11.538;2022-08-06T06:10:03;8.40;;;4.70;;
70731;SDS011;58316;48.164;11.538;2022-08-06T06:12:32;10.27;;;5.57;;
70731;SDS011;58316;48.164;11.538;2022-08-06T06:14:59;11.30;;;6.20;;
70731;SDS011;58316;48.164;11.538;2022-08-06T06:20:06;10.43;;;5.60;;
70731;SDS011;58316;48.164;11.538;2022-08-06T06:22:37;10.47;;;5.37;;
70731;SDS011;58316;48.164;11.538;2022-08-06T06:25:10;10.88;;;5.25;;
70731;SDS011;58316;48.164;11.538;2022-08-06T06:30:06;9.70;;;4.95;;
70731;SDS011;58316;48.164;11.538;2022-08-06T06:35:19;11.60;;;4.70;;
70731;SDS011;58316;48.164;11.538;2022-08-06T06:37:51;10.38;;;4.78;;
70731;SDS011;58316;48.164;11.538;2022-08-06T06:48:42;11.05;;;4.70;;
70731;SDS011;58316;48.164;11.538;2022-08-06T06:51:10;11.55;;;5.15;;
70731;SDS011;58316;48.164;11.538;2022-08-06T06:53:42;9.55;;;5.03;;
70731;SDS011;58316;48.164;11.538;2022-08-06T06:56:10;12.55;;;5.78;;
70731;SDS011;58316;48.164;11.538;2022-08-06T07:01:03;10.07;;;4.65;;
70731;SDS011;58316;48.164;11.538;2022-08-06T07:03:30;9.55;;;4.72;;
70731;SDS011;58316;48.164;11.538;2022-08-06T07:05:58;10.13;;;5.10;;
70731;SDS011;58316;48.164;11.538;2022-08-06T07:08:26;11.82;;;6.22;;
70731;SDS011;58316;48.164;11.538;2022-08-06T07:10:52;9.17;;;5.00;;
70731;SDS011;58316;48.164;11.538;2022-08-06T07:13:20;13.50;;;5.32;;
70731;SDS011;58316;48.164;11.538;2022-08-06T07:15:46;10.23;;;5.43;;
70731;SDS011;58316;48.164;11.538;2022-08-06T07:18:13;10.45;;;6.00;;
70731;SDS011;58316;48.164;11.538;2022-08-06T07:20:39;11.00;;;5.30;;
70731;SDS011;58316;48.164;11.538;2022-08-06T07:23:07;9.90;;;5.67;;
70731;SDS011;58316;48.164;11.538;2022-08-06T07:25:34;10.70;;;5.70;;
70731;SDS011;58316;48.164;11.538;2022-08-06T07:28:02;9.63;;;5.57;;
70731;SDS011;58316;48.164;11.538;2022-08-06T07:30:29;12.90;;;6.32;;
70731;SDS011;58316;48.164;11.538;2022-08-06T07:32:55;10.63;;;6.35;;
70731;SDS011;58316;48.164;11.538;2022-08-06T07:35:21;11.77;;;6.37;;
70731;SDS011;58316;48.164;11.538;2022-08-06T07:37:56;12.95;;;6.97;;
70731;SDS011;58316;48.164;11.538;2022-08-06T07:40:35;13.38;;;6.68;;
70731;SDS011;58316;48.164;11.538;2022-08-06T07:43:13;11.32;;;6.28;;
70731;SDS011;58316;48.164;11.538;2022-08-06T07:45:39;13.43;;;7.00;;
70731;SDS011;58316;48.164;11.538;2022-08-06T07:48:07;14.47;;;7.90;;
70731;SDS011;58316;48.164;11.538;2022-08-06T07:50:34;13.52;;;7.68;;
70731;SDS011;58316;48.164;11.538;2022-08-06T07:53:01;16.48;;;8.23;;
70731;SDS011;58316;48.164;11.538;2022-08-06T07:55:27;17.55;;;8.10;;
70731;SDS011;58316;48.164;11.538;2022-08-06T07:57:54;17.70;;;8.35;;
70731;SDS011;58316;48.164;11.538;2022-08-06T08:00:22;13.73;;;8.00;;
70731;SDS011;58316;48.164;11.538;2022-08-06T08:02:48;13.77;;;8.23;;
70731;SDS011;58316;48.164;11.538;2022-08-06T08:05:34;16.63;;;8.18;;
70731;SDS011;58316;48.164;11.538;2022-08-06T08:08:19;13.88;;;8.65;;
70731;SDS011;58316;48.164;11.538;2022-08-06T08:10:45;14.93;;;8.32;;
70731;SDS011;58316;48.164;11.538;2022-08-06T08:13:11;15.27;;;8.30;;
70731;SDS011;58316;48.164;11.538;2022-08-06T08:15:38;15.60;;;9.80;;
70731;SDS011;58316;48.164;11.538;2022-08-06T08:18:05;13.75;;;9.63;;
70731;SDS011;58316;48.164;11.538;2022-08-06T08:20:31;14.55;;;9.30;;
70731;SDS011;58316;48.164;11.538;2022-08-06T08:22:58;15.95;;;9.90;;
70731;SDS011;58316;48.164;11.538;2022-08-06T08:25:25;17.20;;;11.03;;
70731;SDS011;58316;48.164;11.538;2022-08-06T08:27:51;19.45;;;11.15;;
70731;SDS011;58316;48.164;11.538;2022-08-06T08:30:17;18.27;;;12.25;;
70731;SDS011;58316;48.164;11.538;2022-08-06T08:32:43;20.20;;;10.75;;
70731;SDS011;58316;48.164;11.538;2022-08-06T08:35:09;17.90;;;11.93;;
70731;SDS011;58316;48.164;11.538;2022-08-06T08:37:36;19.13;;;12.87;;
70731;SDS011;58316;48.164;11.538;2022-08-06T08:40:02;21.27;;;12.57;;
70731;SDS011;58316;48.164;11.538;2022-08-06T08:45:24;20.25;;;12.98;;
70731;SDS011;58316;48.164;11.538;2022-08-06T08:47:51;17.25;;;11.27;;
70731;SDS011;58316;48.164;11.538;2022-08-06T08:50:21;19.20;;;12.13;;
70731;SDS011;58316;48.164;11.538;2022-08-06T08:52:48;21.67;;;11.93;;
70731;SDS011;58316;48.164;11.538;2022-08-06T08:55:16;19.50;;;12.63;;
70731;SDS011;58316;48.164;11.538;2022-08-06T08:57:46;19.55;;;12.23;;
70731;SDS011;58316;48.164;11.538;2022-08-06T09:00:12;18.70;;;12.35;;
70731;SDS011;58316;48.164;11.538;2022-08-06T09:02:38;17.93;;;12.20;;
70731;SDS011;58316;48.164;11.538;2022-08-06T09:05:06;25.30;;;14.77;;
70731;SDS011;58316;48.164;11.538;2022-08-06T09:07:32;20.77;;;13.05;;
70731;SDS011;58316;48.164;11.538;2022-08-06T09:09:59;19.55;;;12.35;;
70731;SDS011;58316;48.164;11.538;2022-08-06T09:12:25;20.77;;;13.05;;
70731;SDS011;58316;48.164;11.538;2022-08-06T09:14:51;19.30;;;12.87;;
70731;SDS011;58316;48.164;11.538;2022-08-06T09:17:18;18.73;;;12.18;;
70731;SDS011;58316;48.164;11.538;2022-08-06T09:19:44;19.67;;;13.32;;
70731;SDS011;58316;48.164;11.538;2022-08-06T09:22:10;19.23;;;11.93;;
70731;SDS011;58316;48.164;11.538;2022-08-06T09:24:36;16.95;;;11.20;;
70731;SDS011;58316;48.164;11.538;2022-08-06T09:29:32;19.10;;;12.77;;
70731;SDS011;58316;48.164;11.538;2022-08-06T09:31:59;18.55;;;12.98;;
70731;SDS011;58316;48.164;11.538;2022-08-06T09:34:32;19.15;;;12.52;;
70731;SDS011;58316;48.164;11.538;2022-08-06T09:36:58;19.85;;;12.57;;
70731;SDS011;58316;48.164;11.538;2022-08-06T09:39:38;18.53;;;10.83;;
70731;SDS011;58316;48.164;11.538;2022-08-06T09:42:05;16.83;;;10.25;;
70731;SDS011;58316;48.164;11.538;2022-08-06T09:44:32;17.63;;;10.95;;
70731;SDS011;58316;48.164;11.538;2022-08-06T09:46:58;18.02;;;10.25;;
70731;SDS011;58316;48.164;11.538;2022-08-06T09:49:25;16.77;;;10.32;;
70731;SDS011;58316;48.164;11.538;2022-08-06T09:51:54;22.33;;;12.90;;
70731;SDS011;58316;48.164;11.538;2022-08-06T09:54:37;18.80;;;11.05;;
70731;SDS011;58316;48.164;11.538;2022-08-06T09:57:04;14.77;;;9.80;;
70731;SDS011;58316;48.164;11.538;2022-08-06T09:59:40;16.00;;;9.23;;
70731;SDS011;58316;48.164;11.538;2022-08-06T10:02:11;16.55;;;9.68;;
70731;SDS011;58316;48.164;11.538;2022-08-06T10:04:37;18.50;;;10.30;;
70731;SDS011;58316;48.164;11.538;2022-08-06T10:07:03;16.27;;;9.52;;
70731;SDS011;58316;48.164;11.538;2022-08-06T10:09:29;13.82;;;8.32;;
70731;SDS011;58316;48.164;11.538;2022-08-06T10:11:57;14.57;;;8.82;;
70731;SDS011;58316;48.164;11.538;2022-08-06T10:14:30;15.38;;;9.15;;
70731;SDS011;58316;48.164;11.538;2022-08-06T10:19:32;15.43;;;8.63;;
70731;SDS011;58316;48.164;11.538;2022-08-06T10:22:07;15.23;;;8.77;;
70731;SDS011;58316;48.164;11.538;2022-08-06T10:24:35;13.77;;;8.18;;
70731;SDS011;58316;48.164;11.538;2022-08-06T10:27:05;12.70;;;7.80;;
70731;SDS011;58316;48.164;11.538;2022-08-06T10:29:32;14.10;;;7.93;;
70731;SDS011;58316;48.164;11.538;2022-08-06T10:31:58;12.55;;;7.03;;
70731;SDS011;58316;48.164;11.538;2022-08-06T10:34:26;13.27;;;7.60;;
70731;SDS011;58316;48.164;11.538;2022-08-06T10:37:00;13.40;;;7.05;;
70731;SDS011;58316;48.164;11.538;2022-08-06T10:39:28;12.73;;;7.60;;
70731;SDS011;58316;48.164;11.538;2022-08-06T10:41:54;11.73;;;6.73;;
70731;SDS011;58316;48.164;11.538;2022-08-06T10:44:22;12.27;;;7.22;;
70731;SDS011;58316;48.164;11.538;2022-08-06T10:46:50;12.30;;;7.72;;
70731;SDS011;58316;48.164;11.538;2022-08-06T10:49:20;12.45;;;8.07;;
70731;SDS011;58316;48.164;11.538;2022-08-06T10:51:49;13.77;;;8.32;;
70731;SDS011;58316;48.164;11.538;2022-08-06T10:54:16;13.43;;;8.13;;
70731;SDS011;58316;48.164;11.538;2022-08-06T10:56:42;15.38;;;7.97;;
70731;SDS011;58316;48.164;11.538;2022-08-06T10:59:08;12.55;;;8.90;;
70731;SDS011;58316;48.164;11.538;2022-08-06T11:04:12;12.68;;;8.23;;
70731;SDS011;58316;48.164;11.538;2022-08-06T11:06:58;13.17;;;8.40;;
70731;SDS011;58316;48.164;11.538;2022-08-06T11:14:55;12.95;;;8.38;;
70731;SDS011;58316;48.164;11.538;2022-08-06T11:17:22;15.23;;;8.68;;
70731;SDS011;58316;48.164;11.538;2022-08-06T11:19:48;23.87;;;8.93;;
70731;SDS011;58316;48.164;11.538;2022-08-06T11:24:59;13.55;;;8.93;;
70731;SDS011;58316;48.164;11.538;2022-08-06T11:30:10;13.48;;;7.90;;
70731;SDS011;58316;48.164;11.538;2022-08-06T11:32:43;14.23;;;8.30;;
70731;SDS011;58316;48.164;11.538;2022-08-06T11:37:54;14.40;;;8.50;;
70731;SDS011;58316;48.164;11.538;2022-08-06T11:40:20;14.05;;;8.68;;
70731;SDS011;58316;48.164;11.538;2022-08-06T11:42:46;12.45;;;8.32;;
70731;SDS011;58316;48.164;11.538;2022-08-06T11:45:12;13.53;;;8.20;;
70731;SDS011;58316;48.164;11.538;2022-08-06T11:50:23;13.15;;;7.95;;
70731;SDS011;58316;48.164;11.538;2022-08-06T11:52:49;18.45;;;10.32;;
70731;SDS011;58316;48.164;11.538;2022-08-06T11:55:15;16.75;;;11.10;;
70731;SDS011;58316;48.164;11.538;2022-08-06T11:57:41;16.43;;;10.80;;
70731;SDS011;58316;48.164;11.538;2022-08-06T12:00:09;17.05;;;11.25;;
70731;SDS011;58316;48.164;11.538;2022-08-06T12:07:39;19.13;;;11.00;;
70731;SDS011;58316;48.164;11.538;2022-08-06T12:14:59;16.27;;;10.05;;
70731;SDS011;58316;48.164;11.538;2022-08-06T12:17:26;18.83;;;11.07;;
70731;SDS011;58316;48.164;11.538;2022-08-06T12:19:54;15.32;;;10.20;;
70731;SDS011;58316;48.164;11.538;2022-08-06T12:22:21;16.70;;;9.73;;
70731;SDS011;58316;48.164;11.538;2022-08-06T12:24:51;16.00;;;9.85;;
70731;SDS011;58316;48.164;11.538;2022-08-06T12:27:19;13.82;;;9.20;;
70731;SDS011;58316;48.164;11.538;2022-08-06T12:29:46;14.63;;;9.45;;
70731;SDS011;58316;48.164;11.538;2022-08-06T12:32:19;13.98;;;9.32;;
70731;SDS011;58316;48.164;11.538;2022-08-06T12:34:46;15.13;;;9.00;;
70731;SDS011;58316;48.164;11.538;2022-08-06T12:37:12;15.15;;;8.90;;
70731;SDS011;58316;48.164;11.538;2022-08-06T12:39:39;13.68;;;8.75;;
70731;SDS011;58316;48.164;11.538;2022-08-06T12:42:24;14.48;;;9.00;;
70731;SDS011;58316;48.164;11.538;2022-08-06T12:44:51;12.77;;;7.72;;
70731;SDS011;58316;48.164;11.538;2022-08-06T12:47:17;13.40;;;8.47;;
70731;SDS011;58316;48.164;11.538;2022-08-06T12:49:43;13.10;;;8.60;;
70731;SDS011;58316;48.164;11.538;2022-08-06T12:52:13;13.15;;;8.30;;
70731;SDS011;58316;48.164;11.538;2022-08-06T12:54:41;13.00;;;8.35;;
70731;SDS011;58316;48.164;11.538;2022-08-06T12:57:07;12.00;;;7.80;;
70731;SDS011;58316;48.164;11.538;2022-08-06T12:59:33;13.47;;;7.67;;
70731;SDS011;58316;48.164;11.538;2022-08-06T13:01:59;12.48;;;7.97;;
70731;SDS011;58316;48.164;11.538;2022-08-06T13:04:25;12.68;;;7.35;;
70731;SDS011;58316;48.164;11.538;2022-08-06T13:06:52;14.85;;;8.18;;
70731;SDS011;58316;48.164;11.538;2022-08-06T13:09:27;14.15;;;8.60;;
70731;SDS011;58316;48.164;11.538;2022-08-06T13:11:54;13.27;;;8.03;;
70731;SDS011;58316;48.164;11.538;2022-08-06T13:14:20;14.18;;;8.32;;
70731;SDS011;58316;48.164;11.538;2022-08-06T13:16:46;14.13;;;8.27;;
70731;SDS011;58316;48.164;11.538;2022-08-06T13:19:14;13.48;;;7.82;;
70731;SDS011;58316;48.164;11.538;2022-08-06T13:21:41;13.30;;;8.00;;
70731;SDS011;58316;48.164;11.538;2022-08-06T13:24:08;12.53;;;7.70;;
70731;SDS011;58316;48.164;11.538;2022-08-06T13:26:45;10.82;;;7.32;;
70731;SDS011;58316;48.164;11.538;2022-08-06T13:29:19;14.00;;;7.85;;
70731;SDS011;58316;48.164;11.538;2022-08-06T13:31:47;13.05;;;7.63;;
70731;SDS011;58316;48.164;11.538;2022-08-06T13:34:22;11.93;;;7.00;;
70731;SDS011;58316;48.164;11.538;2022-08-06T13:36:56;11.67;;;6.93;;
70731;SDS011;58316;48.164;11.538;2022-08-06T13:39:29;13.38;;;7.15;;
70731;SDS011;58316;48.164;11.538;2022-08-06T13:42:08;10.98;;;6.85;;
70731;SDS011;58316;48.164;11.538;2022-08-06T13:44:39;13.82;;;7.43;;
70731;SDS011;58316;48.164;11.538;2022-08-06T13:47:06;10.57;;;6.63;;
70731;SDS011;58316;48.164;11.538;2022-08-06T13:49:33;11.27;;;5.83;;
70731;SDS011;58316;48.164;11.538;2022-08-06T13:51:59;10.05;;;6.13;;
70731;SDS011;58316;48.164;11.538;2022-08-06T13:54:25;11.63;;;7.30;;
70731;SDS011;58316;48.164;11.538;2022-08-06T13:56:53;12.45;;;6.07;;
70731;SDS011;58316;48.164;11.538;2022-08-06T13:59:20;10.55;;;6.15;;
70731;SDS011;58316;48.164;11.538;2022-08-06T14:01:46;12.50;;;6.37;;
70731;SDS011;58316;48.164;11.538;2022-08-06T14:04:13;9.75;;;5.68;;
70731;SDS011;58316;48.164;11.538;2022-08-06T14:06:41;10.02;;;6.25;;
70731;SDS011;58316;48.164;11.538;2022-08-06T14:09:07;11.27;;;5.75;;
70731;SDS011;58316;48.164;11.538;2022-08-06T14:11:33;11.20;;;6.65;;
70731;SDS011;58316;48.164;11.538;2022-08-06T14:13:59;9.37;;;5.40;;
70731;SDS011;58316;48.164;11.538;2022-08-06T14:16:25;10.98;;;6.10;;
70731;SDS011;58316;48.164;11.538;2022-08-06T14:18:51;10.05;;;5.75;;
70731;SDS011;58316;48.164;11.538;2022-08-06T14:21:18;10.52;;;5.80;;
70731;SDS011;58316;48.164;11.538;2022-08-06T14:23:44;10.38;;;5.55;;
70731;SDS011;58316;48.164;11.538;2022-08-06T14:26:10;10.03;;;5.37;;
70731;SDS011;58316;48.164;11.538;2022-08-06T14:28:36;10.35;;;5.35;;
70731;SDS011;58316;48.164;11.538;2022-08-06T14:31:02;10.98;;;5.97;;
70731;SDS011;58316;48.164;11.538;2022-08-06T14:33:28;12.45;;;6.32;;
70731;SDS011;58316;48.164;11.538;2022-08-06T14:35:54;9.32;;;5.50;;
70731;SDS011;58316;48.164;11.538;2022-08-06T14:38:20;8.77;;;5.47;;
70731;SDS011;58316;48.164;11.538;2022-08-06T14:40:46;11.93;;;5.70;;
70731;SDS011;58316;48.164;11.538;2022-08-06T14:43:31;9.98;;;5.53;;
70731;SDS011;58316;48.164;11.538;2022-08-06T14:46:16;10.18;;;5.40;;
70731;SDS011;58316;48.164;11.538;2022-08-06T14:48:42;10.30;;;5.32;;
70731;SDS011;58316;48.164;11.538;2022-08-06T14:51:08;9.47;;;5.27;;
70731;SDS011;58316;48.164;11.538;2022-08-06T14:53:34;8.70;;;5.30;;
70731;SDS011;58316;48.164;11.538;2022-08-06T14:56:00;9.55;;;4.93;;
70731;SDS011;58316;48.164;11.538;2022-08-06T14:58:26;10.23;;;5.32;;
70731;SDS011;58316;48.164;11.538;2022-08-06T15:00:52;9.38;;;5.70;;
70731;SDS011;58316;48.164;11.538;2022-08-06T15:03:18;9.00;;;5.40;;
70731;SDS011;58316;48.164;11.538;2022-08-06T15:05:45;9.02;;;5.40;;
70731;SDS011;58316;48.164;11.538;2022-08-06T15:08:11;9.63;;;5.47;;
70731;SDS011;58316;48.164;11.538;2022-08-06T15:10:37;8.32;;;5.32;;
70731;SDS011;58316;48.164;11.538;2022-08-06T15:13:04;8.90;;;5.03;;
70731;SDS011;58316;48.164;11.538;2022-08-06T15:15:31;8.27;;;4.50;;
70731;SDS011;58316;48.164;11.538;2022-08-06T15:17:57;10.32;;;4.68;;
70731;SDS011;58316;48.164;11.538;2022-08-06T15:20:23;8.25;;;4.40;;
70731;SDS011;58316;48.164;11.538;2022-08-06T15:22:50;8.68;;;4.53;;
70731;SDS011;58316;48.164;11.538;2022-08-06T15:25:16;9.73;;;4.55;;
70731;SDS011;58316;48.164;11.538;2022-08-06T15:27:46;8.83;;;4.23;;
70731;SDS011;58316;48.164;11.538;2022-08-06T15:30:12;8.15;;;3.90;;
70731;SDS011;58316;48.164;11.538;2022-08-06T15:32:39;11.35;;;4.93;;
70731;SDS011;58316;48.164;11.538;2022-08-06T15:35:05;12.10;;;4.80;;
70731;SDS011;58316;48.164;11.538;2022-08-06T15:37:31;11.15;;;4.15;;
70731;SDS011;58316;48.164;11.538;2022-08-06T15:39:57;8.47;;;4.50;;
70731;SDS011;58316;48.164;11.538;2022-08-06T15:42:23;10.25;;;5.00;;
70731;SDS011;58316;48.164;11.538;2022-08-06T15:44:52;12.85;;;5.65;;